Kukimaru No.13 — JD2457 — position and weather

sailwx.info

Track history (hours):
 
Tides and Currents Weather Stations Pressure Air Temp Water Temp Dewpoint Dewpoint Depression Visibility Wind Speed Wind Dir Waves Ship Positions

Kukimaru No.13

Last reported at 2018-Jul-21 03:41 UTC. Time now 2018-Jul-23 02:14 UTC.
Position N 34°36' E 135°05'.

Length 75 m.

Type: Cargo ship. MMSI: 431000251.

Date/timePositionNaut miles runAvg speedWind from/ knotsBaromVisibWave heightAir tempDewpointWater temp
2018-Jul-21 03:41N 34°36' E 135°05'3 9.1
2018-Jul-21 03:20N 34°32' E 135°05'410.7
2018-Jul-21 03:00N 34°29' E 135°05'511.0
2018-Jul-21 02:30N 34°23' E 135°04'511.1
2018-Jul-21 02:00N 34°18' E 135°04'4 7.8
2018-Jul-21 01:29N 34°14' E 135°06'1 0.5
2018-Jul-20 23:58N 34°15' E 135°07'0 0.0
2018-Jul-20 23:10N 34°15' E 135°07'0 0.0
2018-Jul-20 22:55N 34°15' E 135°07'0 0.0
2018-Jul-20 22:28N 34°15' E 135°07'0 0.0
2018-Jul-20 21:58N 34°15' E 135°07'0 0.0
2018-Jul-20 21:22N 34°15' E 135°07'0 0.0
2018-Jul-20 20:58N 34°15' E 135°07'0 0.0
2018-Jul-20 20:28N 34°15' E 135°07'0 0.0
2018-Jul-20 10:21N 34°15' E 135°07'2 6.4
2018-Jul-20 10:00N 34°15' E 135°04'510.7
2018-Jul-20 09:30N 34°20' E 135°05'2011.2
2018-Jul-20 07:42N 34°35' E 135°21'210.2
2018-Jul-20 07:30N 34°36' E 135°23'  
2018-Jul-17 02:04N 34°34' E 135°27'0 0.0
2018-Jul-17 01:55N 34°34' E 135°27'0 0.0
2018-Jul-16 11:13N 34°35' E 135°27'2 0.1
2018-Jul-15 20:01N 34°36' E 135°25'010.1
2018-Jul-15 20:00N 34°36' E 135°25'4 9.0
2018-Jul-15 19:30N 34°34' E 135°20'611.0
2018-Jul-15 18:59N 34°30' E 135°15'510.2
2018-Jul-15 18:29N 34°26' E 135°11'510.0
2018-Jul-15 17:58N 34°22' E 135°07'5 9.8
2018-Jul-15 17:30N 34°18' E 135°04'5 9.4
2018-Jul-15 17:00N 34°14' E 135°03'911.4
2018-Jul-15 16:15N 34°05' E 135°03'310.7
2018-Jul-15 16:00N 34°03' E 135°03'  
Track history (hours):
 
Tides and Currents Weather Stations Pressure Air Temp Water Temp Dewpoint Dewpoint Depression Visibility Wind Speed Wind Dir Waves Ship Positions

Kukimaru No.13

Last reported at 2018-Jul-21 03:41 UTC. Time now 2018-Jul-23 02:14 UTC.
Position N 34°36' E 135°05'.

Length 75 m.

Type: Cargo ship. MMSI: 431000251.

Date/timePositionNaut miles runAvg speedWind from/ knotsBaromVisibWave heightAir tempDewpointWater temp
2018-Jul-21 03:41N 34°36' E 135°05'3 9.1
2018-Jul-21 03:20N 34°32' E 135°05'410.7
2018-Jul-21 03:00N 34°29' E 135°05'511.0
2018-Jul-21 02:30N 34°23' E 135°04'511.1
2018-Jul-21 02:00N 34°18' E 135°04'4 7.8
2018-Jul-21 01:29N 34°14' E 135°06'1 0.5
2018-Jul-20 23:58N 34°15' E 135°07'0 0.0
2018-Jul-20 23:10N 34°15' E 135°07'0 0.0
2018-Jul-20 22:55N 34°15' E 135°07'0 0.0
2018-Jul-20 22:28N 34°15' E 135°07'0 0.0
2018-Jul-20 21:58N 34°15' E 135°07'0 0.0
2018-Jul-20 21:22N 34°15' E 135°07'0 0.0
2018-Jul-20 20:58N 34°15' E 135°07'0 0.0
2018-Jul-20 20:28N 34°15' E 135°07'0 0.0
2018-Jul-20 10:21N 34°15' E 135°07'2 6.4
2018-Jul-20 10:00N 34°15' E 135°04'510.7
2018-Jul-20 09:30N 34°20' E 135°05'2011.2
2018-Jul-20 07:42N 34°35' E 135°21'210.2
2018-Jul-20 07:30N 34°36' E 135°23'  
2018-Jul-17 02:04N 34°34' E 135°27'0 0.0
2018-Jul-17 01:55N 34°34' E 135°27'0 0.0
2018-Jul-16 11:13N 34°35' E 135°27'2 0.1
2018-Jul-15 20:01N 34°36' E 135°25'010.1
2018-Jul-15 20:00N 34°36' E 135°25'4 9.0
2018-Jul-15 19:30N 34°34' E 135°20'611.0
2018-Jul-15 18:59N 34°30' E 135°15'510.2
2018-Jul-15 18:29N 34°26' E 135°11'510.0
2018-Jul-15 17:58N 34°22' E 135°07'5 9.8
2018-Jul-15 17:30N 34°18' E 135°04'5 9.4
2018-Jul-15 17:00N 34°14' E 135°03'911.4
2018-Jul-15 16:15N 34°05' E 135°03'310.7
2018-Jul-15 16:00N 34°03' E 135°03'  

Dump ship's entire track history